Time;durP1;ratioP1;P1;durP2;ratioP2;P2;SDS_P1;SDS_P2;PMS_P1;PMS_P2;Temp;Humidity;BMP_temperature;BMP_pressure;BME280_temperature;BME280_humidity;BME280_pressure;Samples;Min_cycle;Max_cycle;Signal;HPM_P1;HPM_P2
2021/06/05 00:29:03;;;;;;;6.40;3.53;;;;;;;;;;5181407;27;20292;-61
2021/06/05 00:31:29;;;;;;;7.60;3.30;;;;;;;;;;5181648;27;20076;-64
2021/06/05 00:33:55;;;;;;;7.47;3.50;;;;;;;;;;5180951;27;20154;-63
2021/06/05 00:36:21;;;;;;;3.75;3.10;;;;;;;;;;5181562;27;20105;-64
2021/06/05 00:38:47;;;;;;;6.35;3.50;;;;;;;;;;5181106;27;20081;-64
2021/06/05 00:41:16;;;;;;;4.47;3.40;;;;;;;;;;5181400;27;20209;-64
2021/06/05 00:43:45;;;;;;;9.27;3.40;;;;;;;;;;5162591;27;20069;-65
2021/06/05 00:46:12;;;;;;;7.15;3.47;;;;;;;;;;5162204;27;20178;-64
2021/06/05 00:48:38;;;;;;;7.50;3.28;;;;;;;;;;5162484;27;20093;-65
2021/06/05 00:51:04;;;;;;;10.20;3.97;;;;;;;;;;5181294;27;20082;-64
2021/06/05 00:53:30;;;;;;;5.90;3.45;;;;;;;;;;5162205;27;20106;-65
2021/06/05 00:55:59;;;;;;;6.43;4.37;;;;;;;;;;5162183;27;20073;-65
2021/06/05 00:58:25;;;;;;;10.40;3.60;;;;;;;;;;5162335;27;20461;-65
2021/06/05 01:01:07;;;;;;;6.95;3.50;;;;;;;;;;5162081;27;20413;-64
2021/06/05 01:03:33;;;;;;;6.95;3.87;;;;;;;;;;5181633;27;20096;-64
2021/06/05 01:06:07;;;;;;;8.85;3.58;;;;;;;;;;5145152;27;20160;-64
2021/06/05 01:08:44;;;;;;;4.97;3.58;;;;;;;;;;5145703;27;20097;-64
2021/06/05 01:11:33;;;;;;;4.30;3.10;;;;;;;;;;5146011;27;20184;-65
2021/06/05 01:14:23;;;;;;;9.07;3.35;;;;;;;;;;5162344;27;20086;-64
2021/06/05 01:16:49;;;;;;;6.57;3.40;;;;;;;;;;5161804;27;20082;-64
2021/06/05 01:19:39;;;;;;;8.18;3.75;;;;;;;;;;5145051;27;20178;-64
2021/06/05 01:22:27;;;;;;;10.40;3.58;;;;;;;;;;5181144;27;20081;-64
2021/06/05 01:25:35;;;;;;;6.50;3.28;;;;;;;;;;5180933;27;20065;-64
2021/06/05 01:28:26;;;;;;;11.15;3.15;;;;;;;;;;5141415;27;20082;-64
2021/06/05 01:30:54;;;;;;;13.18;3.50;;;;;;;;;;5127257;27;20094;-64
2021/06/05 01:33:21;;;;;;;10.63;3.37;;;;;;;;;;5141220;27;20089;-64
2021/06/05 01:35:48;;;;;;;15.02;5.20;;;;;;;;;;5141449;27;20222;-64
2021/06/05 01:38:14;;;;;;;17.55;4.60;;;;;;;;;;5158597;27;20087;-64
2021/06/05 01:40:40;;;;;;;20.50;4.82;;;;;;;;;;5158550;27;20478;-64
2021/06/05 01:43:06;;;;;;;16.67;4.90;;;;;;;;;;5141326;27;20225;-65
2021/06/05 01:45:35;;;;;;;13.60;4.75;;;;;;;;;;5158336;27;20114;-65
2021/06/05 01:48:01;;;;;;;25.30;5.18;;;;;;;;;;5158401;27;20090;-65
2021/06/05 01:50:28;;;;;;;12.43;5.05;;;;;;;;;;5159951;27;20106;-64
2021/06/05 01:52:55;;;;;;;13.18;4.12;;;;;;;;;;5140983;27;20059;-65
2021/06/05 01:55:23;;;;;;;8.57;3.10;;;;;;;;;;5141044;27;20102;-64
2021/06/05 01:57:54;;;;;;;6.43;3.60;;;;;;;;;;5158393;27;20102;-65
2021/06/05 02:00:23;;;;;;;6.32;3.25;;;;;;;;;;5158303;27;20094;-65
2021/06/05 02:02:49;;;;;;;8.32;3.72;;;;;;;;;;5158012;27;20146;-65
2021/06/05 02:05:16;;;;;;;6.95;3.35;;;;;;;;;;5160119;27;20096;-64
2021/06/05 02:07:42;;;;;;;8.52;3.58;;;;;;;;;;5157878;27;20102;-64
2021/06/05 02:10:10;;;;;;;7.12;3.70;;;;;;;;;;5158140;27;20086;-65
2021/06/05 02:12:36;;;;;;;6.90;3.35;;;;;;;;;;5140895;27;20121;-64
2021/06/05 02:15:02;;;;;;;6.90;3.10;;;;;;;;;;5158508;27;20090;-65
2021/06/05 02:17:29;;;;;;;9.15;3.00;;;;;;;;;;5159538;27;20062;-65
2021/06/05 02:19:57;;;;;;;4.90;3.00;;;;;;;;;;5141294;27;20094;-65
2021/06/05 02:22:24;;;;;;;8.75;2.90;;;;;;;;;;5140851;27;20411;-65
2021/06/05 02:24:55;;;;;;;7.32;2.97;;;;;;;;;;5160036;27;20391;-65
2021/06/05 02:27:23;;;;;;;8.45;3.17;;;;;;;;;;5144701;27;20082;-65
2021/06/05 02:29:49;;;;;;;11.43;2.83;;;;;;;;;;5144804;27;20152;-64
2021/06/05 02:32:16;;;;;;;9.57;3.62;;;;;;;;;;5161309;27;20066;-65
2021/06/05 02:34:43;;;;;;;7.50;2.90;;;;;;;;;;5161697;27;20074;-65
2021/06/05 02:37:12;;;;;;;9.00;3.20;;;;;;;;;;5161036;27;20078;-65
2021/06/05 02:39:39;;;;;;;8.32;2.87;;;;;;;;;;5161652;27;20165;-65
2021/06/05 02:42:13;;;;;;;10.48;3.75;;;;;;;;;;5161908;27;20078;-65
2021/06/05 02:44:43;;;;;;;13.77;3.33;;;;;;;;;;5161728;27;20076;-65
2021/06/05 02:47:09;;;;;;;12.13;3.17;;;;;;;;;;5161623;27;20066;-64
2021/06/05 02:49:35;;;;;;;11.00;3.35;;;;;;;;;;5161446;27;20089;-65
2021/06/05 02:52:06;;;;;;;10.15;3.50;;;;;;;;;;5180632;27;20081;-65
2021/06/05 02:54:32;;;;;;;4.45;2.60;;;;;;;;;;5180420;27;20077;-65
2021/06/05 02:56:58;;;;;;;8.82;2.90;;;;;;;;;;5180121;27;20075;-65
2021/06/05 02:59:24;;;;;;;5.85;2.47;;;;;;;;;;5144207;27;20089;-64
2021/06/05 03:01:50;;;;;;;4.93;2.65;;;;;;;;;;5161213;27;20496;-64
2021/06/05 03:04:16;;;;;;;6.03;2.72;;;;;;;;;;5161552;27;20074;-65
2021/06/05 03:06:42;;;;;;;5.40;2.85;;;;;;;;;;5180389;27;20110;-65
2021/06/05 03:09:08;;;;;;;6.03;2.75;;;;;;;;;;5180343;27;20073;-65
2021/06/05 03:11:34;;;;;;;5.43;3.10;;;;;;;;;;5180166;27;20543;-65
2021/06/05 03:14:02;;;;;;;8.35;3.92;;;;;;;;;;5161149;27;20098;-64
2021/06/05 03:16:28;;;;;;;6.43;3.58;;;;;;;;;;5180061;27;20077;-65
2021/06/05 03:18:54;;;;;;;9.30;3.70;;;;;;;;;;5161451;27;20092;-65
2021/06/05 03:21:20;;;;;;;8.23;3.60;;;;;;;;;;5180276;27;20401;-64
2021/06/05 03:23:46;;;;;;;19.80;4.35;;;;;;;;;;5180293;27;20180;-64
2021/06/05 03:26:12;;;;;;;17.20;3.80;;;;;;;;;;5161131;27;20100;-65
2021/06/05 03:28:39;;;;;;;14.07;3.65;;;;;;;;;;5160774;27;20089;-65
2021/06/05 03:31:05;;;;;;;11.15;3.28;;;;;;;;;;5161220;27;20082;-65
2021/06/05 03:33:31;;;;;;;11.20;3.12;;;;;;;;;;5180002;27;20129;-65
2021/06/05 03:35:57;;;;;;;10.95;3.85;;;;;;;;;;5180108;27;20148;-64
2021/06/05 03:38:23;;;;;;;14.23;4.12;;;;;;;;;;5180105;27;20070;-65
2021/06/05 03:40:50;;;;;;;14.52;3.40;;;;;;;;;;5161320;27;20182;-65
2021/06/05 03:43:15;;;;;;;12.00;3.45;;;;;;;;;;5160958;27;20164;-64
2021/06/05 03:45:41;;;;;;;14.50;3.55;;;;;;;;;;5180025;27;20111;-64
2021/06/05 03:48:08;;;;;;;10.60;4.00;;;;;;;;;;5180120;27;20092;-65
2021/06/05 03:50:39;;;;;;;8.02;3.83;;;;;;;;;;5180310;27;20089;-65
2021/06/05 03:53:05;;;;;;;18.70;3.85;;;;;;;;;;5180098;27;20500;-64
2021/06/05 03:55:31;;;;;;;9.65;3.95;;;;;;;;;;5160952;27;20152;-64
2021/06/05 03:57:59;;;;;;;8.57;3.78;;;;;;;;;;5179830;27;20100;-64
2021/06/05 04:00:28;;;;;;;9.35;3.33;;;;;;;;;;5161160;27;20097;-65
2021/06/05 04:02:54;;;;;;;4.87;3.60;;;;;;;;;;5180296;27;20082;-65
2021/06/05 04:05:20;;;;;;;4.15;2.90;;;;;;;;;;5179971;27;20116;-65
2021/06/05 04:07:46;;;;;;;5.95;3.00;;;;;;;;;;5180041;27;20093;-65
2021/06/05 04:10:12;;;;;;;8.98;3.37;;;;;;;;;;5161152;27;20101;-64
2021/06/05 04:12:38;;;;;;;7.45;2.92;;;;;;;;;;5179862;27;20070;-65
2021/06/05 04:15:06;;;;;;;5.37;2.58;;;;;;;;;;5161273;27;20073;-61
2021/06/05 04:17:32;;;;;;;14.93;6.32;;;;;;;;;;5180116;27;20089;-61
2021/06/05 04:19:58;;;;;;;3.75;2.65;;;;;;;;;;5179929;27;20098;-62
2021/06/05 04:22:24;;;;;;;7.18;2.83;;;;;;;;;;5179686;27;20264;-61
2021/06/05 04:24:50;;;;;;;9.25;2.78;;;;;;;;;;5179936;27;20082;-65
2021/06/05 04:27:16;;;;;;;3.65;2.30;;;;;;;;;;5179727;27;20488;-65
2021/06/05 04:29:42;;;;;;;5.60;2.60;;;;;;;;;;5179923;27;20176;-65
2021/06/05 04:32:08;;;;;;;5.18;2.60;;;;;;;;;;5160722;27;20089;-65
2021/06/05 04:34:34;;;;;;;5.15;2.95;;;;;;;;;;5180168;27;20097;-64
2021/06/05 04:37:00;;;;;;;9.32;2.90;;;;;;;;;;5179636;27;20074;-65
2021/06/05 04:39:26;;;;;;;5.15;3.00;;;;;;;;;;5161095;27;20422;-65
2021/06/05 04:41:52;;;;;;;6.30;3.00;;;;;;;;;;5161022;27;20160;-65
2021/06/05 04:44:17;;;;;;;4.95;3.28;;;;;;;;;;5179918;27;20425;-65
2021/06/05 04:46:43;;;;;;;3.37;2.78;;;;;;;;;;5179748;27;20086;-65
2021/06/05 04:49:09;;;;;;;3.97;2.50;;;;;;;;;;5161071;27;20106;-65
2021/06/05 04:51:36;;;;;;;4.15;2.47;;;;;;;;;;5179879;27;20097;-62
2021/06/05 04:54:02;;;;;;;5.80;2.85;;;;;;;;;;5180208;27;20263;-64
2021/06/05 04:56:47;;;;;;;8.15;2.83;;;;;;;;;;5179787;27;20086;-63
2021/06/05 04:59:14;;;;;;;8.63;3.15;;;;;;;;;;5180077;27;20105;-64
2021/06/05 05:01:40;;;;;;;4.50;2.65;;;;;;;;;;5180822;27;20070;-64
2021/06/05 05:04:06;;;;;;;7.00;2.95;;;;;;;;;;5181211;27;20098;-64
2021/06/05 05:06:32;;;;;;;3.60;2.83;;;;;;;;;;5162081;27;20098;-64
2021/06/05 05:08:58;;;;;;;7.50;3.15;;;;;;;;;;5181228;27;20475;-64
2021/06/05 05:11:24;;;;;;;4.97;2.80;;;;;;;;;;5181055;27;20418;-64
2021/06/05 05:13:50;;;;;;;7.85;3.17;;;;;;;;;;5181155;27;20152;-64
2021/06/05 05:16:16;;;;;;;4.78;3.25;;;;;;;;;;5162265;27;20421;-64
2021/06/05 05:18:47;;;;;;;9.18;5.07;;;;;;;;;;5161810;27;20506;-64
2021/06/05 05:21:15;;;;;;;6.75;2.97;;;;;;;;;;5181200;27;20082;-63
2021/06/05 05:23:41;;;;;;;5.90;2.55;;;;;;;;;;5161868;27;20094;-64
2021/06/05 05:26:07;;;;;;;7.22;2.97;;;;;;;;;;5181077;27;20106;-64
2021/06/05 05:28:33;;;;;;;3.87;2.70;;;;;;;;;;5181401;27;20082;-65
2021/06/05 05:31:00;;;;;;;9.55;3.33;;;;;;;;;;5181018;27;20398;-64
2021/06/05 05:33:26;;;;;;;6.90;3.25;;;;;;;;;;5180788;27;20081;-62
2021/06/05 05:35:53;;;;;;;6.45;3.30;;;;;;;;;;5181092;27;20126;-62
2021/06/05 05:38:19;;;;;;;11.32;3.67;;;;;;;;;;5161875;27;20086;-64
2021/06/05 05:40:46;;;;;;;9.07;3.65;;;;;;;;;;5144714;27;20473;-63
2021/06/05 05:43:13;;;;;;;4.05;3.12;;;;;;;;;;5162112;27;20137;-64
2021/06/05 05:45:39;;;;;;;11.95;3.30;;;;;;;;;;5180870;27;20096;-64
2021/06/05 05:48:06;;;;;;;4.22;3.10;;;;;;;;;;5181115;27;20094;-62
2021/06/05 05:50:34;;;;;;;7.65;3.40;;;;;;;;;;5180802;27;20509;-64
2021/06/05 05:53:00;;;;;;;7.00;3.40;;;;;;;;;;5180774;27;20496;-64
2021/06/05 05:55:26;;;;;;;8.65;3.10;;;;;;;;;;5162034;27;20586;-64
2021/06/05 05:57:52;;;;;;;10.85;3.22;;;;;;;;;;5180910;27;20085;-61
2021/06/05 06:00:28;;;;;;;6.05;2.97;;;;;;;;;;5161931;27;20101;-62
2021/06/05 06:02:54;;;;;;;9.38;3.37;;;;;;;;;;5180624;27;20170;-62
2021/06/05 06:05:20;;;;;;;4.65;3.00;;;;;;;;;;5180939;27;20164;-65
2021/06/05 06:07:46;;;;;;;7.10;3.95;;;;;;;;;;5180882;27;20078;-64
2021/06/05 06:10:13;;;;;;;7.05;4.60;;;;;;;;;;5161675;27;20204;-65
2021/06/05 06:12:39;;;;;;;11.55;5.12;;;;;;;;;;5180378;27;20492;-63
2021/06/05 06:15:09;;;;;;;10.18;4.20;;;;;;;;;;5180601;27;20105;-64
2021/06/05 06:17:36;;;;;;;5.85;3.00;;;;;;;;;;5180540;27;20082;-64
2021/06/05 06:20:04;;;;;;;10.80;3.17;;;;;;;;;;5180746;27;20097;-64
2021/06/05 06:22:30;;;;;;;14.63;3.92;;;;;;;;;;5180739;27;20088;-64
2021/06/05 06:24:56;;;;;;;8.93;3.40;;;;;;;;;;5180481;27;20205;-63
2021/06/05 06:27:22;;;;;;;10.23;3.65;;;;;;;;;;5180383;27;20093;-64
2021/06/05 06:29:47;;;;;;;12.52;3.75;;;;;;;;;;5161483;27;20196;-65
2021/06/05 06:32:13;;;;;;;10.27;3.12;;;;;;;;;;5180571;27;20508;-65
2021/06/05 06:34:39;;;;;;;9.05;3.15;;;;;;;;;;5161459;27;20077;-65
2021/06/05 06:37:22;;;;;;;12.68;5.93;;;;;;;;;;5180276;27;20067;-66
2021/06/05 06:39:48;;;;;;;9.77;2.90;;;;;;;;;;5161652;27;20093;-63
2021/06/05 06:42:14;;;;;;;7.50;3.42;;;;;;;;;;5180614;27;20098;-61
2021/06/05 06:44:40;;;;;;;8.88;3.10;;;;;;;;;;5180456;27;20098;-63
2021/06/05 06:47:08;;;;;;;5.35;3.22;;;;;;;;;;5161365;27;20092;-61
2021/06/05 06:49:34;;;;;;;9.07;3.30;;;;;;;;;;5180533;27;20062;-65
2021/06/05 06:51:59;;;;;;;28.35;4.72;;;;;;;;;;5161397;27;20095;-64
2021/06/05 06:54:25;;;;;;;17.98;3.62;;;;;;;;;;5161530;27;20170;-65
2021/06/05 06:56:51;;;;;;;11.05;3.40;;;;;;;;;;5180312;27;20475;-64
2021/06/05 06:59:17;;;;;;;5.12;3.80;;;;;;;;;;5180503;27;20518;-65
2021/06/05 07:01:43;;;;;;;6.12;3.15;;;;;;;;;;5180279;27;20108;-63
2021/06/05 07:04:10;;;;;;;6.62;3.50;;;;;;;;;;5180400;27;20113;-66
2021/06/05 07:06:36;;;;;;;5.20;3.78;;;;;;;;;;5180455;27;20503;-65
2021/06/05 07:09:03;;;;;;;8.32;4.15;;;;;;;;;;5180360;27;20092;-63
2021/06/05 07:11:31;;;;;;;9.15;3.22;;;;;;;;;;5180380;27;20159;-65
2021/06/05 07:13:58;;;;;;;5.75;3.37;;;;;;;;;;5161266;27;20070;-65
2021/06/05 07:16:24;;;;;;;6.60;3.00;;;;;;;;;;5180220;27;20082;-62
2021/06/05 07:18:50;;;;;;;7.05;3.20;;;;;;;;;;5161268;27;20105;-62
2021/06/05 07:21:17;;;;;;;8.13;3.58;;;;;;;;;;5161616;27;20094;-65
2021/06/05 07:23:43;;;;;;;7.72;3.78;;;;;;;;;;5180246;27;20174;-66
2021/06/05 07:26:11;;;;;;;6.97;2.90;;;;;;;;;;5161369;27;20101;-64
2021/06/05 07:28:49;;;;;;;9.10;3.15;;;;;;;;;;5161076;27;20086;-62
2021/06/05 07:31:21;;;;;;;9.00;3.33;;;;;;;;;;5180320;27;20430;-65
2021/06/05 07:33:47;;;;;;;10.80;3.33;;;;;;;;;;5161603;27;20065;-62
2021/06/05 07:36:16;;;;;;;10.05;3.67;;;;;;;;;;5180487;27;20183;-66
2021/06/05 07:38:42;;;;;;;6.40;3.15;;;;;;;;;;5161019;27;20495;-65
2021/06/05 07:41:08;;;;;;;7.07;3.67;;;;;;;;;;5180606;27;20555;-66
2021/06/05 07:43:33;;;;;;;15.73;3.97;;;;;;;;;;5180547;27;20236;-65
2021/06/05 07:45:59;;;;;;;6.60;3.17;;;;;;;;;;5161252;27;20108;-63
2021/06/05 07:48:26;;;;;;;13.68;4.18;;;;;;;;;;5180235;27;20074;-62
2021/06/05 07:50:52;;;;;;;6.55;3.35;;;;;;;;;;5180209;27;20090;-66
2021/06/05 07:53:18;;;;;;;8.00;4.18;;;;;;;;;;5180326;27;20220;-66
2021/06/05 07:55:59;;;;;;;6.97;4.50;;;;;;;;;;5180137;27;20532;-62
2021/06/05 07:58:53;;;;;;;9.48;3.67;;;;;;;;;;5176920;27;20100;-65
2021/06/05 08:01:19;;;;;;;7.97;3.60;;;;;;;;;;5180221;27;20348;-64
2021/06/05 08:03:44;;;;;;;13.32;4.15;;;;;;;;;;5158258;27;20070;-66
2021/06/05 08:06:10;;;;;;;4.62;3.22;;;;;;;;;;5159209;27;20094;-66
2021/06/05 08:08:42;;;;;;;9.60;4.30;;;;;;;;;;5159637;27;20177;-66
2021/06/05 08:11:08;;;;;;;11.60;4.10;;;;;;;;;;5157500;27;20101;-66
2021/06/05 08:13:34;;;;;;;10.35;4.28;;;;;;;;;;5157344;27;20105;-66
2021/06/05 08:16:00;;;;;;;9.77;4.00;;;;;;;;;;5159157;27;20517;-66
2021/06/05 08:18:26;;;;;;;10.45;3.62;;;;;;;;;;5157309;27;20086;-66
2021/06/05 08:20:58;;;;;;;9.73;4.40;;;;;;;;;;5157900;27;20086;-65
2021/06/05 08:23:26;;;;;;;13.10;4.60;;;;;;;;;;5157277;27;20157;-62
2021/06/05 08:25:52;;;;;;;11.95;5.05;;;;;;;;;;5159195;27;20453;-66
2021/06/05 08:28:20;;;;;;;9.40;5.10;;;;;;;;;;5158808;27;20149;-66
2021/06/05 08:30:47;;;;;;;7.50;4.65;;;;;;;;;;5159205;27;20461;-66
2021/06/05 08:33:13;;;;;;;12.93;5.10;;;;;;;;;;5158650;27;20218;-62
2021/06/05 08:35:39;;;;;;;8.93;4.60;;;;;;;;;;5157879;27;20076;-64
2021/06/05 08:38:06;;;;;;;9.48;4.97;;;;;;;;;;5160025;27;20120;-65
2021/06/05 08:40:45;;;;;;;16.12;5.53;;;;;;;;;;5160528;27;20078;-62
2021/06/05 08:43:11;;;;;;;9.68;5.15;;;;;;;;;;5160075;27;20253;-65
2021/06/05 08:45:37;;;;;;;15.30;4.18;;;;;;;;;;5141586;27;20051;-63
2021/06/05 08:48:05;;;;;;;9.10;3.83;;;;;;;;;;5141198;27;20160;-65
2021/06/05 08:50:31;;;;;;;8.25;3.70;;;;;;;;;;5141703;27;20092;-62
2021/06/05 08:53:04;;;;;;;7.85;3.83;;;;;;;;;;5159061;27;20085;-65
2021/06/05 08:55:55;;;;;;;10.13;3.83;;;;;;;;;;5124875;27;20106;-62
2021/06/05 08:58:37;;;;;;;5.55;3.70;;;;;;;;;;5163144;27;20086;-62
2021/06/05 09:01:06;;;;;;;10.00;4.25;;;;;;;;;;5158828;27;20089;-62
2021/06/05 09:03:34;;;;;;;4.87;4.07;;;;;;;;;;5158194;27;20086;-64
2021/06/05 09:06:23;;;;;;;15.77;4.35;;;;;;;;;;5158570;27;20066;-65
2021/06/05 09:08:50;;;;;;;6.00;4.07;;;;;;;;;;5158241;27;20102;-64
2021/06/05 09:11:16;;;;;;;9.02;4.53;;;;;;;;;;5160411;27;20098;-62
2021/06/05 09:13:43;;;;;;;8.95;4.22;;;;;;;;;;5159877;27;20074;-64
2021/06/05 09:16:18;;;;;;;12.57;3.47;;;;;;;;;;5158310;27;20098;-63
2021/06/05 09:19:06;;;;;;;5.45;3.70;;;;;;;;;;5160147;27;20192;-61
2021/06/05 09:21:35;;;;;;;7.40;4.32;;;;;;;;;;5158694;27;20093;-65
2021/06/05 09:24:34;;;;;;;7.50;3.78;;;;;;;;;;5159834;27;20062;-61
2021/06/05 09:27:28;;;;;;;9.95;3.65;;;;;;;;;;5160971;27;20180;-65
2021/06/05 09:30:34;;;;;;;7.03;3.80;;;;;;;;;;5160792;27;20180;-65
2021/06/05 09:33:10;;;;;;;11.15;5.78;;;;;;;;;;5160636;27;20108;-61
2021/06/05 09:36:01;;;;;;;9.85;4.20;;;;;;;;;;5159538;27;20071;-61
2021/06/05 09:38:39;;;;;;;13.27;5.20;;;;;;;;;;5175993;27;20066;-66
2021/06/05 09:41:34;;;;;;;7.97;3.70;;;;;;;;;;5144459;27;20110;-63
2021/06/05 09:44:39;;;;;;;8.48;3.65;;;;;;;;;;5161102;27;20071;-65
2021/06/05 09:47:25;;;;;;;10.73;3.08;;;;;;;;;;5159296;27;20058;-65
2021/06/05 09:49:58;;;;;;;14.13;5.25;;;;;;;;;;5175990;27;20433;-65
2021/06/05 09:52:34;;;;;;;10.25;3.65;;;;;;;;;;5158686;27;20107;-63
2021/06/05 09:55:15;;;;;;;8.75;3.45;;;;;;;;;;5158823;27;20429;-65
2021/06/05 09:57:46;;;;;;;7.57;3.17;;;;;;;;;;5169206;27;20089;-66
2021/06/05 10:00:37;;;;;;;8.02;3.85;;;;;;;;;;5161955;27;20167;-64
2021/06/05 10:03:30;;;;;;;4.50;3.20;;;;;;;;;;5181567;27;20210;-65
2021/06/05 10:06:33;;;;;;;17.80;3.95;;;;;;;;;;5181772;27;20078;-62
2021/06/05 10:09:32;;;;;;;6.35;3.35;;;;;;;;;;5167823;27;20089;-66
2021/06/05 10:12:09;;;;;;;7.03;4.05;;;;;;;;;;5181356;27;20097;-62
2021/06/05 10:15:12;;;;;;;8.40;3.50;;;;;;;;;;5163449;27;20477;-66
2021/06/05 10:18:00;;;;;;;7.07;3.75;;;;;;;;;;5171677;27;20133;-64
2021/06/05 10:21:01;;;;;;;14.77;4.20;;;;;;;;;;5164378;27;20152;-65
2021/06/05 10:23:57;;;;;;;7.30;3.50;;;;;;;;;;5162609;27;20090;-62
2021/06/05 10:26:50;;;;;;;9.32;3.80;;;;;;;;;;5181244;27;20171;-64
2021/06/05 10:29:46;;;;;;;9.32;3.47;;;;;;;;;;5164066;27;20090;-62
2021/06/05 10:32:24;;;;;;;11.77;3.62;;;;;;;;;;5162738;27;20090;-64
2021/06/05 10:34:57;;;;;;;6.15;3.60;;;;;;;;;;5162661;27;20075;-65
2021/06/05 10:37:33;;;;;;;4.28;2.85;;;;;;;;;;5181580;27;20160;-64
2021/06/05 10:40:02;;;;;;;4.57;3.30;;;;;;;;;;5162248;27;20093;-64
2021/06/05 10:42:39;;;;;;;6.45;3.47;;;;;;;;;;5180474;27;20146;-64
2021/06/05 10:45:12;;;;;;;13.35;3.20;;;;;;;;;;5161465;27;20496;-64
2021/06/05 10:48:03;;;;;;;8.20;4.12;;;;;;;;;;5161699;27;20073;-64
2021/06/05 10:51:08;;;;;;;4.70;3.10;;;;;;;;;;5164946;27;20145;-66
2021/06/05 10:54:27;;;;;;;3.87;2.60;;;;;;;;;;5177289;27;20500;-64
2021/06/05 10:57:23;;;;;;;5.73;3.03;;;;;;;;;;5174486;27;20073;-64
2021/06/05 11:00:33;;;;;;;6.30;2.90;;;;;;;;;;5161197;27;20093;-62
2021/06/05 11:03:12;;;;;;;7.18;3.03;;;;;;;;;;5143663;27;20079;-64
2021/06/05 11:06:17;;;;;;;14.87;3.60;;;;;;;;;;5158067;27;20111;-66
2021/06/05 11:09:05;;;;;;;6.87;3.30;;;;;;;;;;5159907;27;20090;-66
2021/06/05 11:11:47;;;;;;;6.22;4.40;;;;;;;;;;5142588;27;20602;-66
2021/06/05 11:14:45;;;;;;;9.25;3.45;;;;;;;;;;5160128;27;20106;-66
2021/06/05 11:17:49;;;;;;;5.68;2.35;;;;;;;;;;5159964;27;20082;-65
2021/06/05 11:20:39;;;;;;;6.95;3.40;;;;;;;;;;5159915;27;20087;-65
2021/06/05 11:23:10;;;;;;;8.25;2.87;;;;;;;;;;5160411;27;20086;-66
2021/06/05 11:25:54;;;;;;;7.15;3.50;;;;;;;;;;5160281;27;20500;-62
2021/06/05 11:28:40;;;;;;;4.35;2.87;;;;;;;;;;5159435;27;20159;-64
2021/06/05 11:31:44;;;;;;;6.93;3.50;;;;;;;;;;5161322;27;20089;-66
2021/06/05 11:34:33;;;;;;;9.32;2.97;;;;;;;;;;5161159;27;20055;-66
2021/06/05 11:37:13;;;;;;;6.43;3.45;;;;;;;;;;5159931;27;20438;-65
2021/06/05 11:40:03;;;;;;;10.43;3.22;;;;;;;;;;5160303;27;20100;-65
2021/06/05 11:42:32;;;;;;;5.32;3.28;;;;;;;;;;5160188;27;20127;-65
2021/06/05 11:45:04;;;;;;;5.45;3.10;;;;;;;;;;5160038;27;20062;-65
2021/06/05 11:47:57;;;;;;;8.00;3.20;;;;;;;;;;5159915;27;20218;-66
2021/06/05 11:50:33;;;;;;;7.60;4.62;;;;;;;;;;5159661;27;20086;-66
2021/06/05 11:53:32;;;;;;;9.23;3.28;;;;;;;;;;5161845;27;20245;-66
2021/06/05 11:56:23;;;;;;;5.47;3.25;;;;;;;;;;5181204;27;20069;-65
2021/06/05 11:58:52;;;;;;;8.95;4.18;;;;;;;;;;5161166;27;20432;-63
2021/06/05 12:01:35;;;;;;;5.53;3.00;;;;;;;;;;5161590;27;20075;-64
2021/06/05 12:04:22;;;;;;;3.35;2.90;;;;;;;;;;5165173;27;20302;-65
2021/06/05 12:06:58;;;;;;;2.92;2.60;;;;;;;;;;5163319;27;20085;-66
2021/06/05 12:09:41;;;;;;;4.72;3.00;;;;;;;;;;5178960;27;20491;-64
2021/06/05 12:12:23;;;;;;;5.30;2.72;;;;;;;;;;5161557;27;20114;-64
2021/06/05 12:15:20;;;;;;;8.98;4.07;;;;;;;;;;5180845;27;20094;-66
2021/06/05 12:18:11;;;;;;;11.35;3.83;;;;;;;;;;5180741;27;20066;-65
2021/06/05 12:21:24;;;;;;;6.62;3.95;;;;;;;;;;5180695;27;20078;-66
2021/06/05 12:23:55;;;;;;;6.97;3.05;;;;;;;;;;5180026;27;20078;-66
2021/06/05 12:26:27;;;;;;;9.20;3.08;;;;;;;;;;5162446;27;20075;-66
2021/06/05 12:29:12;;;;;;;11.47;3.80;;;;;;;;;;5162771;27;20081;-65
2021/06/05 12:31:44;;;;;;;7.22;3.03;;;;;;;;;;5181151;27;20497;-62
2021/06/05 12:34:38;;;;;;;5.07;3.20;;;;;;;;;;5180293;27;20109;-64
2021/06/05 12:37:17;;;;;;;5.93;2.78;;;;;;;;;;5180850;27;20089;-64
2021/06/05 12:40:00;;;;;;;6.50;3.45;;;;;;;;;;5181518;27;20067;-65
2021/06/05 12:42:38;;;;;;;9.15;3.97;;;;;;;;;;5181006;27;20157;-63
2021/06/05 12:45:16;;;;;;;5.50;2.60;;;;;;;;;;5161786;27;20586;-65
2021/06/05 12:48:01;;;;;;;3.50;2.78;;;;;;;;;;5162783;27;20090;-65
2021/06/05 12:50:50;;;;;;;3.58;2.58;;;;;;;;;;5163710;27;20488;-65
2021/06/05 12:53:25;;;;;;;7.95;3.12;;;;;;;;;;5158241;27;20098;-65
2021/06/05 12:56:03;;;;;;;4.50;3.03;;;;;;;;;;5158612;27;20098;-65
2021/06/05 12:58:43;;;;;;;8.85;3.47;;;;;;;;;;5158982;27;20127;-65
2021/06/05 13:01:39;;;;;;;5.80;3.40;;;;;;;;;;5159631;27;20090;-66
2021/06/05 13:04:38;;;;;;;10.52;5.35;;;;;;;;;;5160040;27;20098;-64
2021/06/05 13:07:16;;;;;;;5.80;3.37;;;;;;;;;;5159561;27;20071;-66
2021/06/05 13:09:47;;;;;;;8.73;3.83;;;;;;;;;;5159987;27;20074;-64
2021/06/05 13:12:21;;;;;;;9.75;3.60;;;;;;;;;;5158636;27;20087;-65
2021/06/05 13:15:06;;;;;;;6.28;2.97;;;;;;;;;;5158453;27;20145;-62
2021/06/05 13:17:34;;;;;;;5.28;3.47;;;;;;;;;;5160659;27;20090;-62
2021/06/05 13:20:45;;;;;;;9.88;3.45;;;;;;;;;;5160680;27;20078;-62
2021/06/05 13:23:24;;;;;;;3.53;3.00;;;;;;;;;;5161393;27;20079;-62
2021/06/05 13:25:50;;;;;;;6.18;3.75;;;;;;;;;;5160884;27;20086;-66
2021/06/05 13:28:40;;;;;;;6.95;3.72;;;;;;;;;;5161019;27;20169;-62
2021/06/05 13:31:13;;;;;;;10.10;4.00;;;;;;;;;;5160915;27;20417;-65
2021/06/05 13:33:54;;;;;;;12.50;4.20;;;;;;;;;;5160470;27;20092;-66
2021/06/05 13:36:27;;;;;;;8.85;3.83;;;;;;;;;;5160419;27;20118;-63
2021/06/05 13:39:11;;;;;;;7.97;3.92;;;;;;;;;;5161370;27;20066;-66
2021/06/05 13:41:48;;;;;;;5.00;3.10;;;;;;;;;;5161684;27;20114;-66
2021/06/05 13:44:19;;;;;;;7.10;3.25;;;;;;;;;;5159328;27;20093;-65
2021/06/05 13:46:47;;;;;;;20.65;10.15;;;;;;;;;;5159592;27;20122;-62
2021/06/05 13:49:18;;;;;;;4.43;3.00;;;;;;;;;;5158801;27;20079;-62
2021/06/05 13:51:47;;;;;;;12.95;3.70;;;;;;;;;;5160585;27;20098;-66
2021/06/05 13:54:19;;;;;;;9.98;3.42;;;;;;;;;;5162436;27;20066;-65
2021/06/05 13:56:49;;;;;;;9.60;3.60;;;;;;;;;;5183197;27;20169;-64
2021/06/05 13:59:31;;;;;;;14.40;3.17;;;;;;;;;;5202588;27;20483;-66
2021/06/05 14:02:13;;;;;;;4.75;2.87;;;;;;;;;;5203193;27;20073;-66
2021/06/05 14:05:01;;;;;;;6.05;3.30;;;;;;;;;;5190570;27;20069;-63
2021/06/05 14:07:33;;;;;;;13.07;4.53;;;;;;;;;;5185430;27;20179;-65
2021/06/05 14:10:06;;;;;;;11.15;5.00;;;;;;;;;;5202983;27;20109;-63
2021/06/05 14:12:34;;;;;;;10.20;4.70;;;;;;;;;;5203062;27;20085;-65
2021/06/05 14:15:23;;;;;;;9.52;4.20;;;;;;;;;;5185312;27;20073;-64
2021/06/05 14:17:58;;;;;;;9.18;3.45;;;;;;;;;;5185184;27;20085;-64
2021/06/05 14:20:33;;;;;;;10.52;3.20;;;;;;;;;;5202743;27;20063;-62
2021/06/05 14:23:02;;;;;;;4.40;2.80;;;;;;;;;;5184157;27;20587;-66
2021/06/05 14:25:31;;;;;;;8.95;3.20;;;;;;;;;;5202895;27;20096;-64
2021/06/05 14:28:09;;;;;;;7.57;3.40;;;;;;;;;;5202303;27;20074;-64
2021/06/05 14:30:49;;;;;;;12.98;4.72;;;;;;;;;;5203250;27;20077;-63
2021/06/05 14:33:30;;;;;;;;;;;;;;;;;;5202638;27;20103;-64
2021/06/05 14:35:58;;;;;;;7.62;3.40;;;;;;;;;;5202835;27;20395;-65
2021/06/05 14:38:35;;;;;;;13.55;4.68;;;;;;;;;;5202257;27;20083;-64
2021/06/05 14:41:15;;;;;;;16.52;3.45;;;;;;;;;;5183607;27;20572;-66
2021/06/05 14:43:57;;;;;;;10.13;4.40;;;;;;;;;;5203010;27;20072;-65
2021/06/05 14:46:38;;;;;;;;;;;;;;;;;;5185361;27;20593;-63
2021/06/05 14:49:19;;;;;;;7.03;3.10;;;;;;;;;;5202660;27;20029;-66
2021/06/05 14:51:52;;;;;;;6.60;3.15;;;;;;;;;;5202621;27;20105;-64
2021/06/05 14:54:28;;;;;;;5.03;3.33;;;;;;;;;;5185003;27;20085;-62
2021/06/05 14:57:01;;;;;;;5.87;3.08;;;;;;;;;;5201691;27;20575;-64
2021/06/05 14:59:29;;;;;;;7.03;3.58;;;;;;;;;;5202342;27;20161;-62
2021/06/05 15:02:00;;;;;;;6.60;3.58;;;;;;;;;;5182989;27;20178;-64
2021/06/05 15:04:30;;;;;;;8.70;3.62;;;;;;;;;;5182700;27;20073;-64
2021/06/05 15:07:00;;;;;;;11.75;4.43;;;;;;;;;;5166666;27;20156;-66
2021/06/05 15:09:34;;;;;;;6.05;3.53;;;;;;;;;;5202108;27;20069;-64
2021/06/05 15:12:01;;;;;;;7.57;4.12;;;;;;;;;;5202060;27;20095;-62
2021/06/05 15:14:29;;;;;;;8.57;4.15;;;;;;;;;;5202442;27;20097;-62
2021/06/05 15:17:04;;;;;;;9.10;5.40;;;;;;;;;;5202540;27;20073;-62
2021/06/05 15:19:44;;;;;;;9.90;4.87;;;;;;;;;;5201544;27;20089;-65
2021/06/05 15:22:14;;;;;;;17.12;6.62;;;;;;;;;;5202858;27;20447;-62
2021/06/05 15:24:41;;;;;;;19.98;9.63;;;;;;;;;;5184210;27;20491;-65
2021/06/05 15:27:23;;;;;;;18.17;5.93;;;;;;;;;;5202580;27;20113;-65
2021/06/05 15:29:55;;;;;;;20.25;5.55;;;;;;;;;;5202458;27;20098;-63
2021/06/05 15:32:27;;;;;;;11.80;4.40;;;;;;;;;;5202569;27;20070;-66
2021/06/05 15:35:11;;;;;;;12.15;4.87;;;;;;;;;;5202563;27;20066;-65
2021/06/05 15:37:41;;;;;;;13.38;5.87;;;;;;;;;;5201643;27;20164;-65
2021/06/05 15:40:09;;;;;;;11.73;4.62;;;;;;;;;;5184165;27;20100;-63
2021/06/05 15:42:37;;;;;;;9.93;4.72;;;;;;;;;;5183121;27;20069;-62
2021/06/05 15:45:11;;;;;;;14.30;6.15;;;;;;;;;;5202222;27;20184;-62
2021/06/05 15:47:44;;;;;;;11.85;4.50;;;;;;;;;;5202283;27;20110;-64